createdAt,value
2022-12-23T00:02:20.263Z,2.88
2022-12-23T00:04:47.234Z,2.53
2022-12-23T00:07:14.123Z,2.68
2022-12-23T00:09:40.934Z,2.69
2022-12-23T00:12:07.925Z,2.83
2022-12-23T00:14:34.779Z,2.74
2022-12-23T00:17:01.687Z,2.77
2022-12-23T00:19:29.333Z,2.84
2022-12-23T00:21:56.266Z,2.85
2022-12-23T00:24:23.148Z,2.79
2022-12-23T00:26:50.034Z,2.63
2022-12-23T00:29:16.927Z,2.55
2022-12-23T00:31:43.929Z,2.56
2022-12-23T00:34:11.327Z,2.66
2022-12-23T00:36:38.278Z,2.59
2022-12-23T00:39:05.239Z,2.53
2022-12-23T00:41:32.755Z,2.66
2022-12-23T00:44:00.052Z,2.58
2022-12-23T00:46:27.462Z,2.73
2022-12-23T00:48:54.437Z,2.74
2022-12-23T00:51:21.353Z,2.60
2022-12-23T00:53:48.183Z,2.68
2022-12-23T00:56:15.083Z,2.68
2022-12-23T00:58:41.874Z,2.73
2022-12-23T01:01:09.154Z,2.61
2022-12-23T01:03:36.082Z,2.70
2022-12-23T01:06:03.912Z,2.62
2022-12-23T01:08:30.791Z,2.50
2022-12-23T01:11:02.158Z,2.56
2022-12-23T01:13:29.028Z,2.51
2022-12-23T01:16:16.966Z,2.67
2022-12-23T01:18:45.075Z,2.49
2022-12-23T01:21:12.395Z,2.44
2022-12-23T01:23:39.349Z,2.55
2022-12-23T01:26:07.950Z,2.57
2022-12-23T01:28:35.902Z,2.53
2022-12-23T01:31:04.499Z,2.30
2022-12-23T01:33:33.036Z,2.43
2022-12-23T01:36:05.126Z,2.48
2022-12-23T01:38:32.044Z,2.42
2022-12-23T01:40:58.994Z,2.32
2022-12-23T01:43:49.208Z,2.45
2022-12-23T01:46:16.319Z,2.53
2022-12-23T01:48:51.255Z,2.38
2022-12-23T01:51:29.885Z,2.33
2022-12-23T01:54:00.984Z,2.35
2022-12-23T01:56:32.296Z,2.47
2022-12-23T01:59:02.379Z,2.39
2022-12-23T02:01:30.814Z,2.48
2022-12-23T02:04:02.190Z,2.34
2022-12-23T02:06:34.971Z,2.44
2022-12-23T02:09:01.980Z,2.51
2022-12-23T02:11:43.882Z,2.41
2022-12-23T02:14:26.554Z,2.34
2022-12-23T02:17:17.694Z,2.26
2022-12-23T02:20:18.738Z,2.39
2022-12-23T02:23:18.529Z,2.27
2022-12-23T02:26:03.903Z,2.27
2022-12-23T02:29:08.076Z,2.16
2022-12-23T02:31:52.169Z,2.10
2022-12-23T02:34:32.513Z,2.10
2022-12-23T02:37:28.595Z,2.14
2022-12-23T02:40:05.326Z,2.00
2022-12-23T02:42:40.381Z,2.02
2022-12-23T02:45:09.960Z,2.04
2022-12-23T02:47:42.944Z,1.92
2022-12-23T02:50:16.081Z,2.02
2022-12-23T02:52:47.612Z,2.21
2022-12-23T02:55:19.673Z,2.21
2022-12-23T02:57:49.985Z,2.19
2022-12-23T03:00:18.377Z,2.16
2022-12-23T03:02:45.582Z,2.16
2022-12-23T03:05:28.129Z,2.12
2022-12-23T03:07:58.499Z,2.19
2022-12-23T03:10:40.483Z,2.09
2022-12-23T03:13:28.570Z,2.16
2022-12-23T03:15:55.484Z,2.23
2022-12-23T03:18:45.979Z,2.09
2022-12-23T03:21:22.580Z,2.12
2022-12-23T03:23:55.450Z,2.13
2022-12-23T03:27:02.561Z,2.15
2022-12-23T03:29:41.725Z,2.09
2022-12-23T03:32:12.869Z,2.03
2022-12-23T03:34:44.158Z,2.07
2022-12-23T03:37:14.590Z,2.20
2022-12-23T03:39:48.213Z,2.15
2022-12-23T03:42:27.778Z,2.15
2022-12-23T03:45:36.521Z,2.18
2022-12-23T03:47:53.279Z,2.22
2022-12-23T03:50:24.024Z,2.11
2022-12-23T03:53:00.296Z,2.06
2022-12-23T03:55:36.429Z,2.16
2022-12-23T03:58:22.186Z,2.12
2022-12-23T04:00:59.287Z,2.12
2022-12-23T04:03:41.153Z,2.10
2022-12-23T04:06:13.136Z,2.07
2022-12-23T04:08:42.599Z,2.32
2022-12-23T04:11:09.726Z,2.21
2022-12-23T04:13:36.840Z,2.26
2022-12-23T04:16:04.327Z,2.11
2022-12-23T04:18:31.559Z,2.23
2022-12-23T04:20:58.714Z,2.35
2022-12-23T04:23:25.631Z,2.27
2022-12-23T04:25:52.490Z,2.21
2022-12-23T04:28:19.323Z,2.14
2022-12-23T04:30:46.205Z,2.47
2022-12-23T04:33:13.134Z,2.45
2022-12-23T04:35:39.952Z,2.43
2022-12-23T04:38:06.852Z,2.39
2022-12-23T04:40:33.842Z,2.54
2022-12-23T04:43:00.704Z,2.52
2022-12-23T04:45:27.543Z,2.54
2022-12-23T04:47:54.405Z,2.50
2022-12-23T04:50:21.301Z,2.50
2022-12-23T04:52:49.161Z,2.55
2022-12-23T04:55:17.707Z,2.46
2022-12-23T04:57:44.508Z,2.25
2022-12-23T05:00:11.972Z,2.39
2022-12-23T05:02:38.870Z,2.29
2022-12-23T05:05:06.271Z,2.37
2022-12-23T05:07:33.143Z,2.39
2022-12-23T05:09:59.963Z,2.41
2022-12-23T05:12:27.237Z,2.37
2022-12-23T05:14:54.093Z,2.34
2022-12-23T05:17:20.898Z,2.39
2022-12-23T05:19:47.741Z,2.47
2022-12-23T05:22:14.590Z,2.32
2022-12-23T05:24:41.376Z,2.14
2022-12-23T05:27:08.163Z,2.44
2022-12-23T05:29:35.167Z,2.46
2022-12-23T05:32:02.076Z,2.47
2022-12-23T05:34:29.093Z,2.33
2022-12-23T05:36:56.531Z,2.21
2022-12-23T05:39:23.850Z,2.10
2022-12-23T05:41:50.772Z,2.40
2022-12-23T05:44:17.701Z,2.40
2022-12-23T05:46:44.621Z,2.33
2022-12-23T05:49:11.568Z,2.34
2022-12-23T05:51:38.436Z,2.46
2022-12-23T05:54:05.351Z,2.60
2022-12-23T05:56:32.147Z,2.47
2022-12-23T05:58:58.998Z,2.57
2022-12-23T06:01:25.825Z,2.58
2022-12-23T06:03:52.819Z,2.72
2022-12-23T06:06:19.814Z,2.70
2022-12-23T06:08:46.688Z,2.63
2022-12-23T06:11:13.524Z,2.80
2022-12-23T06:13:40.414Z,2.77
2022-12-23T06:16:07.657Z,2.57
2022-12-23T06:18:34.508Z,2.67
2022-12-23T06:21:01.359Z,2.77
2022-12-23T06:23:28.168Z,2.85
2022-12-23T06:25:59.595Z,2.71
2022-12-23T06:28:26.998Z,2.68
2022-12-23T06:30:57.709Z,2.57
2022-12-23T06:33:25.572Z,2.67
2022-12-23T06:35:52.622Z,2.70
2022-12-23T06:38:19.646Z,2.57
2022-12-23T06:40:46.468Z,2.35
2022-12-23T06:43:13.556Z,2.43
2022-12-23T06:45:41.146Z,2.46
2022-12-23T06:48:08.191Z,2.57
2022-12-23T06:50:35.075Z,2.47
2022-12-23T06:53:01.971Z,2.58
2022-12-23T06:55:28.881Z,2.61
2022-12-23T06:57:55.825Z,2.64
2022-12-23T07:00:22.841Z,2.66
2022-12-23T07:02:49.921Z,2.72
2022-12-23T07:05:16.980Z,2.75
2022-12-23T07:07:43.959Z,2.55
2022-12-23T07:10:10.864Z,2.83
2022-12-23T07:12:38.156Z,2.74
2022-12-23T07:15:06.076Z,2.54
2022-12-23T07:17:33.219Z,2.48
2022-12-23T07:20:00.198Z,2.54
2022-12-23T07:22:27.080Z,2.44
2022-12-23T07:24:53.903Z,2.54
2022-12-23T07:27:20.811Z,2.64
2022-12-23T07:29:47.646Z,2.53
2022-12-23T07:32:14.536Z,2.55
2022-12-23T07:34:41.390Z,2.48
2022-12-23T07:37:08.340Z,2.43
2022-12-23T07:39:35.541Z,2.20
2022-12-23T07:42:24.935Z,2.33
2022-12-23T07:44:49.525Z,2.09
2022-12-23T07:47:16.363Z,2.16
2022-12-23T07:49:43.203Z,2.23
2022-12-23T07:52:10.090Z,2.15
2022-12-23T07:54:37.095Z,2.44
2022-12-23T07:57:03.995Z,2.48
2022-12-23T07:59:30.943Z,2.29
2022-12-23T08:01:57.956Z,2.33
2022-12-23T08:04:25.134Z,2.46
2022-12-23T08:06:52.018Z,2.32
2022-12-23T08:09:19.200Z,2.49
2022-12-23T08:11:46.065Z,2.43
2022-12-23T08:14:12.989Z,2.31
2022-12-23T08:16:43.989Z,2.46
2022-12-23T08:19:11.287Z,2.34
2022-12-23T08:21:38.107Z,2.48
2022-12-23T08:24:05.396Z,2.64
2022-12-23T08:26:33.188Z,2.61
2022-12-23T08:29:00.840Z,2.43
2022-12-23T08:31:31.222Z,2.51
2022-12-23T08:34:00.105Z,2.62
2022-12-23T08:36:30.396Z,2.47
2022-12-23T08:38:59.586Z,2.61
2022-12-23T08:41:30.396Z,2.59
2022-12-23T08:43:58.302Z,2.46
2022-12-23T08:46:25.632Z,2.49
2022-12-23T08:48:53.461Z,2.60
2022-12-23T08:51:22.099Z,2.65
2022-12-23T08:53:49.208Z,2.69
2022-12-23T08:56:22.522Z,2.61
2022-12-23T08:58:52.253Z,2.89
2022-12-23T09:01:21.685Z,2.86
2022-12-23T09:03:48.955Z,2.78
2022-12-23T09:06:29.097Z,3.12
2022-12-23T09:08:58.411Z,3.01
2022-12-23T09:11:27.336Z,3.06
2022-12-23T09:13:55.351Z,3.03
2022-12-23T09:16:22.883Z,2.96
2022-12-23T09:18:49.936Z,3.09
2022-12-23T09:21:19.689Z,3.08
2022-12-23T09:23:47.556Z,3.27
2022-12-23T09:26:27.092Z,3.28
2022-12-23T09:28:54.938Z,2.93
2022-12-23T09:31:22.847Z,3.03
2022-12-23T09:33:52.171Z,2.93
2022-12-23T09:36:20.197Z,2.93
2022-12-23T09:38:47.239Z,3.08
2022-12-23T09:41:32.385Z,2.97
2022-12-23T09:44:33.583Z,3.23
2022-12-23T09:47:04.668Z,2.91
2022-12-23T09:49:33.857Z,3.26
2022-12-23T09:52:04.907Z,3.37
2022-12-23T09:54:52.524Z,3.36
2022-12-23T09:57:39.787Z,3.08
2022-12-23T10:00:13.665Z,3.06
2022-12-23T10:03:04.988Z,3.26
2022-12-23T10:05:32.007Z,3.43
2022-12-23T10:08:15.318Z,3.36
2022-12-23T10:10:57.140Z,3.33
2022-12-23T10:13:48.951Z,3.26
2022-12-23T10:16:20.854Z,3.21
2022-12-23T10:18:57.187Z,3.12
2022-12-23T10:21:31.280Z,3.11
2022-12-23T10:24:04.947Z,3.23
2022-12-23T10:26:39.032Z,3.41
2022-12-23T10:29:20.840Z,3.28
2022-12-23T10:32:22.008Z,3.09
2022-12-23T10:35:06.922Z,3.26
2022-12-23T10:37:57.894Z,3.21
2022-12-23T10:40:54.094Z,2.97
2022-12-23T10:43:41.354Z,3.01
2022-12-23T10:46:42.762Z,3.21
2022-12-23T10:49:45.072Z,3.16
2022-12-23T10:52:19.141Z,3.12
2022-12-23T10:54:47.718Z,3.09
2022-12-23T10:57:17.301Z,3.11
2022-12-23T10:59:44.949Z,3.07
2022-12-23T11:02:11.923Z,3.00
2022-12-23T11:04:45.300Z,3.11
2022-12-23T11:07:43.971Z,3.17
2022-12-23T11:10:30.797Z,2.83
2022-12-23T11:12:57.684Z,3.18
2022-12-23T11:15:28.575Z,3.16
2022-12-23T11:18:19.547Z,3.17
2022-12-23T11:21:02.921Z,3.22
2022-12-23T11:23:35.822Z,3.05
2022-12-23T11:26:10.171Z,3.30
2022-12-23T11:28:49.850Z,3.24
2022-12-23T11:31:27.386Z,3.18
2022-12-23T11:34:00.780Z,3.23
2022-12-23T11:36:31.493Z,3.19
2022-12-23T11:39:20.637Z,3.29
2022-12-23T11:41:55.133Z,3.25
2022-12-23T11:44:33.338Z,3.28
2022-12-23T11:47:20.069Z,3.27
2022-12-23T11:49:50.991Z,3.19
2022-12-23T11:52:20.815Z,2.94
2022-12-23T11:54:56.231Z,3.29
2022-12-23T11:57:27.892Z,3.18
2022-12-23T12:00:01.970Z,3.37
2022-12-23T12:02:42.991Z,3.39
2022-12-23T12:05:25.220Z,3.12
2022-12-23T12:07:52.965Z,3.16
2022-12-23T12:10:28.202Z,3.29
2022-12-23T12:13:22.620Z,3.21
2022-12-23T12:16:12.470Z,3.16
2022-12-23T12:18:42.576Z,3.07
2022-12-23T12:21:19.037Z,2.84
2022-12-23T12:23:55.477Z,2.93
2022-12-23T12:26:38.002Z,3.10
2022-12-23T12:29:37.060Z,2.93
2022-12-23T12:32:07.572Z,3.07
2022-12-23T12:34:49.751Z,3.03
2022-12-23T12:37:42.305Z,2.95
2022-12-23T12:40:26.453Z,2.92
2022-12-23T12:43:33.204Z,2.85
2022-12-23T12:46:18.489Z,2.76
2022-12-23T12:48:55.778Z,2.94
2022-12-23T12:51:42.720Z,3.00
2022-12-23T12:54:39.455Z,3.01
2022-12-23T12:57:12.079Z,2.94
2022-12-23T12:59:41.253Z,2.86
2022-12-23T13:02:36.377Z,2.77
2022-12-23T13:05:12.375Z,2.88
2022-12-23T13:07:57.122Z,2.91
2022-12-23T13:10:49.367Z,2.85
2022-12-23T13:13:41.753Z,2.89
2022-12-23T13:16:30.372Z,3.00
2022-12-23T13:19:46.538Z,2.93
2022-12-23T13:22:17.493Z,2.88
2022-12-23T13:25:18.340Z,2.99
2022-12-23T13:27:57.230Z,2.84
2022-12-23T13:30:28.581Z,2.85
2022-12-23T13:33:40.827Z,3.02
2022-12-23T13:36:27.946Z,2.92
2022-12-23T13:39:12.712Z,2.84
2022-12-23T13:41:45.391Z,2.76
2022-12-23T13:44:13.292Z,2.91
2022-12-23T13:46:55.703Z,2.80
2022-12-23T13:49:25.729Z,2.86
2022-12-23T13:52:10.322Z,3.00
2022-12-23T13:55:00.116Z,2.85
2022-12-23T13:57:27.194Z,2.87
2022-12-23T14:00:05.535Z,2.83
2022-12-23T14:02:43.097Z,2.90
2022-12-23T14:05:41.076Z,3.00
2022-12-23T14:08:35.076Z,2.70
2022-12-23T14:11:18.692Z,2.82
2022-12-23T14:13:52.032Z,2.84
2022-12-23T14:16:37.136Z,2.70
2022-12-23T14:19:23.356Z,2.71
2022-12-23T14:22:20.946Z,2.89
2022-12-23T14:25:11.450Z,2.88
2022-12-23T14:28:03.378Z,2.72
2022-12-23T14:30:44.089Z,2.77
2022-12-23T14:33:16.006Z,2.70
2022-12-23T14:35:43.217Z,2.91
2022-12-23T14:38:16.474Z,2.84
2022-12-23T14:40:43.390Z,2.84
2022-12-23T14:43:45.668Z,2.96
2022-12-23T14:46:34.124Z,2.93
2022-12-23T14:49:29.645Z,2.86
2022-12-23T14:51:48.323Z,2.92
2022-12-23T14:54:16.316Z,2.88
2022-12-23T14:57:00.854Z,2.91
2022-12-23T15:00:00.303Z,2.87
2022-12-23T15:02:36.196Z,3.00
2022-12-23T15:05:05.251Z,2.88
2022-12-23T15:07:42.824Z,2.89
2022-12-23T15:10:17.785Z,2.90
2022-12-23T15:12:48.592Z,2.84
2022-12-23T15:15:19.758Z,3.04
2022-12-23T15:17:47.927Z,2.81
2022-12-23T15:20:25.399Z,2.87
2022-12-23T15:22:52.417Z,2.93
2022-12-23T15:25:23.976Z,3.04
2022-12-23T15:27:57.306Z,2.99
2022-12-23T15:30:31.405Z,3.03
2022-12-23T15:33:02.379Z,3.01
2022-12-23T15:35:33.662Z,3.12
2022-12-23T15:38:02.772Z,3.07
2022-12-23T15:40:36.359Z,3.29
2022-12-23T15:43:23.484Z,3.14
2022-12-23T15:45:51.400Z,3.00
2022-12-23T15:48:29.830Z,3.35
2022-12-23T15:51:05.507Z,3.11
2022-12-23T15:53:37.249Z,3.08
2022-12-23T15:56:08.315Z,3.13
2022-12-23T15:58:40.433Z,3.08
2022-12-23T16:01:13.706Z,3.06
2022-12-23T16:03:49.587Z,3.19
2022-12-23T16:06:19.185Z,3.22
2022-12-23T16:08:55.131Z,3.11
2022-12-23T16:11:22.299Z,3.17
2022-12-23T16:14:20.313Z,3.18
2022-12-23T16:16:47.363Z,3.18
2022-12-23T16:19:44.658Z,3.09
2022-12-23T16:22:14.554Z,3.03
2022-12-23T16:24:58.061Z,3.10
2022-12-23T16:27:34.646Z,3.03
2022-12-23T16:30:19.075Z,2.94
2022-12-23T16:32:54.826Z,3.04
2022-12-23T16:35:37.110Z,3.19
2022-12-23T16:38:22.920Z,3.34
2022-12-23T16:40:55.561Z,3.11
2022-12-23T16:43:24.774Z,3.05
2022-12-23T16:45:56.981Z,2.92
2022-12-23T16:48:33.047Z,3.13
2022-12-23T16:51:05.046Z,3.06
2022-12-23T16:53:32.412Z,3.00
2022-12-23T16:56:01.151Z,2.95
2022-12-23T16:58:29.327Z,3.09
2022-12-23T17:00:56.851Z,2.86
2022-12-23T17:03:23.985Z,3.07
2022-12-23T17:05:51.033Z,2.87
2022-12-23T17:08:18.047Z,3.02
2022-12-23T17:10:45.523Z,2.60
2022-12-23T17:13:17.058Z,2.86
2022-12-23T17:15:45.175Z,2.73
2022-12-23T17:18:18.116Z,2.92
2022-12-23T17:20:47.993Z,2.84
2022-12-23T17:23:29.602Z,2.82
2022-12-23T17:25:57.583Z,2.85
2022-12-23T17:28:31.252Z,2.83
2022-12-23T17:30:59.297Z,2.82
2022-12-23T17:33:30.636Z,2.73
2022-12-23T17:35:57.766Z,2.86
2022-12-23T17:38:25.291Z,2.71
2022-12-23T17:40:52.731Z,2.74
2022-12-23T17:43:20.163Z,2.70
2022-12-23T17:45:47.609Z,2.67
2022-12-23T17:48:21.516Z,2.71
2022-12-23T17:50:52.705Z,2.64
2022-12-23T17:53:19.993Z,2.48
2022-12-23T17:55:48.335Z,2.45
2022-12-23T17:58:15.389Z,2.55
2022-12-23T18:00:42.683Z,2.56
2022-12-23T18:03:23.588Z,2.56
2022-12-23T18:05:55.624Z,2.57
2022-12-23T18:08:28.422Z,2.56
2022-12-23T18:10:55.530Z,2.44
2022-12-23T18:13:25.698Z,2.44
2022-12-23T18:15:52.909Z,2.50
2022-12-23T18:18:32.079Z,2.60
2022-12-23T18:21:06.003Z,2.65
2022-12-23T18:23:34.655Z,2.47
2022-12-23T18:26:01.957Z,2.51
2022-12-23T18:28:29.329Z,2.68
2022-12-23T18:30:57.566Z,2.72
2022-12-23T18:33:24.811Z,2.35
2022-12-23T18:35:52.116Z,2.34
2022-12-23T18:38:19.324Z,2.57
2022-12-23T18:40:47.658Z,2.62
2022-12-23T18:43:21.217Z,2.59
2022-12-23T18:45:52.828Z,2.71
2022-12-23T18:48:20.844Z,2.56
2022-12-23T18:50:47.818Z,2.55
2022-12-23T18:53:23.740Z,2.54
2022-12-23T18:55:52.322Z,2.48
2022-12-23T18:58:20.087Z,2.49
2022-12-23T19:00:48.931Z,2.52
2022-12-23T19:03:36.344Z,2.76
2022-12-23T19:06:05.841Z,2.60
2022-12-23T19:08:35.178Z,2.73
2022-12-23T19:11:14.182Z,2.87
2022-12-23T19:13:41.509Z,2.91
2022-12-23T19:16:16.384Z,2.70
2022-12-23T19:18:44.821Z,2.80
2022-12-23T19:21:12.106Z,2.73
2022-12-23T19:23:43.349Z,2.70
2022-12-23T19:26:12.956Z,2.66
2022-12-23T19:28:40.615Z,2.45
2022-12-23T19:31:12.242Z,2.59
2022-12-23T19:33:42.942Z,2.63
2022-12-23T19:36:16.411Z,2.71
2022-12-23T19:38:44.006Z,2.49
2022-12-23T19:41:11.540Z,2.57
2022-12-23T19:43:38.973Z,2.55
2022-12-23T19:46:08.792Z,2.63
2022-12-23T19:48:36.473Z,2.85
2022-12-23T19:51:14.353Z,2.86
2022-12-23T19:53:42.441Z,2.77
2022-12-23T19:56:16.852Z,2.83
2022-12-23T19:58:44.430Z,2.83
2022-12-23T20:01:18.375Z,2.71
2022-12-23T20:03:47.487Z,2.82
2022-12-23T20:06:19.407Z,2.59
2022-12-23T20:08:46.751Z,2.56
2022-12-23T20:11:16.168Z,2.68
2022-12-23T20:13:44.188Z,2.83
2022-12-23T20:16:12.356Z,2.61
2022-12-23T20:18:39.656Z,2.74
2022-12-23T20:21:06.832Z,2.72
2022-12-23T20:23:34.862Z,2.77
2022-12-23T20:26:02.333Z,2.81
2022-12-23T20:28:30.225Z,2.90
2022-12-23T20:31:06.311Z,2.90
2022-12-23T20:33:37.913Z,2.90
2022-12-23T20:36:10.579Z,2.78
2022-12-23T20:38:39.764Z,2.57
2022-12-23T20:41:08.656Z,2.74
2022-12-23T20:43:35.917Z,2.67
2022-12-23T20:46:04.485Z,2.60
2022-12-23T20:48:34.411Z,2.83
2022-12-23T20:51:07.111Z,2.84
2022-12-23T20:53:34.681Z,2.73
2022-12-23T20:56:04.875Z,2.68
2022-12-23T20:58:31.798Z,2.86
2022-12-23T21:01:12.910Z,2.55
2022-12-23T21:03:40.757Z,2.72
2022-12-23T21:06:08.922Z,2.74
2022-12-23T21:08:37.963Z,2.72
2022-12-23T21:11:06.238Z,2.36
2022-12-23T21:13:33.715Z,2.68
2022-12-23T21:16:05.348Z,2.63
2022-12-23T21:18:32.930Z,2.56
2022-12-23T21:21:04.833Z,2.67
2022-12-23T21:23:32.459Z,2.84
2022-12-23T21:26:09.338Z,2.78
2022-12-23T21:28:37.948Z,2.87
2022-12-23T21:31:05.655Z,2.83
2022-12-23T21:33:39.280Z,2.67
2022-12-23T21:36:08.203Z,2.76
2022-12-23T21:38:38.278Z,2.63
2022-12-23T21:41:11.626Z,2.81
2022-12-23T21:43:38.956Z,2.76
2022-12-23T21:46:09.194Z,2.78
2022-12-23T21:48:37.273Z,2.71
2022-12-23T21:51:12.152Z,2.51
2022-12-23T21:53:39.130Z,2.55
2022-12-23T21:56:08.541Z,2.64
2022-12-23T21:58:36.030Z,2.52
2022-12-23T22:01:14.535Z,2.58
2022-12-23T22:03:42.627Z,2.62
2022-12-23T22:06:15.610Z,2.61
2022-12-23T22:08:43.462Z,2.62
2022-12-23T22:11:17.595Z,2.60
2022-12-23T22:13:45.769Z,2.67
2022-12-23T22:16:16.373Z,2.65
2022-12-23T22:18:44.064Z,2.65
2022-12-23T22:21:14.211Z,2.74
2022-12-23T22:23:41.486Z,2.64
2022-12-23T22:26:12.178Z,2.63
2022-12-23T22:28:40.157Z,2.66
2022-12-23T22:31:14.910Z,2.63
2022-12-23T22:33:42.307Z,2.64
2022-12-23T22:36:14.236Z,2.49
2022-12-23T22:38:42.246Z,2.72
2022-12-23T22:41:09.962Z,2.56
2022-12-23T22:43:37.794Z,2.56
2022-12-23T22:46:05.182Z,2.56
2022-12-23T22:48:32.474Z,2.75
2022-12-23T22:51:19.835Z,2.71
2022-12-23T22:53:47.585Z,2.70
2022-12-23T22:56:17.632Z,2.79
2022-12-23T22:58:44.780Z,2.82
2022-12-23T23:01:21.826Z,2.84
2022-12-23T23:03:51.193Z,2.72
2022-12-23T23:06:18.317Z,2.83
2022-12-23T23:08:45.295Z,2.74
2022-12-23T23:11:12.286Z,2.59
2022-12-23T23:13:39.292Z,2.69
2022-12-23T23:16:06.712Z,2.75
2022-12-23T23:18:34.256Z,2.53
2022-12-23T23:21:01.667Z,2.50
2022-12-23T23:23:28.693Z,2.65
2022-12-23T23:25:55.820Z,2.71
2022-12-23T23:28:22.995Z,2.59
2022-12-23T23:31:03.592Z,2.65
2022-12-23T23:33:37.294Z,2.74
2022-12-23T23:36:06.581Z,2.67
2022-12-23T23:38:33.705Z,2.79
2022-12-23T23:41:00.833Z,2.66
2022-12-23T23:43:27.983Z,2.61
2022-12-23T23:45:54.975Z,2.67
2022-12-23T23:48:22.502Z,2.59
2022-12-23T23:50:49.520Z,2.42
2022-12-23T23:53:16.694Z,2.43
2022-12-23T23:55:43.718Z,2.52
2022-12-23T23:58:11.735Z,2.52
